Time;durP1;ratioP1;P1;durP2;ratioP2;P2;SDS_P1;SDS_P2;PMS_P1;PMS_P2;Temp;Humidity;BMP_temperature;BMP_pressure;BME280_temperature;BME280_humidity;BME280_pressure;Samples;Min_cycle;Max_cycle;Signal;HPM_P1;HPM_P2
2023/06/23 00:02:16;;;;;;;16.35;13.20;;;;;;;;;;5032801;28;20391;-71
2023/06/23 00:04:42;;;;;;;19.35;14.15;;;;;;;;;;5038270;28;20531;-71
2023/06/23 00:07:09;;;;;;;17.27;13.00;;;;;;;;;;5049935;28;20033;-71
2023/06/23 00:09:37;;;;;;;17.13;13.40;;;;;;;;;;5050992;28;20033;-71
2023/06/23 00:12:07;;;;;;;17.85;12.57;;;;;;;;;;5033120;28;20039;-72
2023/06/23 00:14:33;;;;;;;18.40;10.93;;;;;;;;;;5051208;28;20028;-72
2023/06/23 00:16:59;;;;;;;16.67;10.73;;;;;;;;;;5050157;28;20033;-72
2023/06/23 00:19:25;;;;;;;14.55;10.20;;;;;;;;;;5030012;28;20399;-72
2023/06/23 00:21:52;;;;;;;16.40;10.15;;;;;;;;;;5045209;28;20025;-72
2023/06/23 00:24:18;;;;;;;17.02;12.18;;;;;;;;;;5041824;28;20033;-72
2023/06/23 00:26:44;;;;;;;17.88;13.02;;;;;;;;;;5046910;28;20021;-72
2023/06/23 00:29:11;;;;;;;16.95;11.73;;;;;;;;;;5050470;28;20041;-72
2023/06/23 00:31:37;;;;;;;17.17;12.38;;;;;;;;;;5050464;28;20028;-72
2023/06/23 00:34:03;;;;;;;16.02;12.00;;;;;;;;;;5045835;28;20048;-71
2023/06/23 00:36:30;;;;;;;17.48;13.13;;;;;;;;;;5055593;28;20625;-72
2023/06/23 00:38:56;;;;;;;17.38;12.80;;;;;;;;;;5070354;28;20016;-71
2023/06/23 00:41:22;;;;;;;17.50;12.70;;;;;;;;;;5068175;28;20129;-72
2023/06/23 00:43:50;;;;;;;19.95;13.27;;;;;;;;;;5065740;28;20482;-72
2023/06/23 00:46:20;;;;;;;17.83;12.63;;;;;;;;;;5056598;28;20090;-72
2023/06/23 00:48:47;;;;;;;20.35;14.65;;;;;;;;;;5049753;28;20079;-73
2023/06/23 00:51:15;;;;;;;16.67;13.30;;;;;;;;;;5047396;28;20052;-71
2023/06/23 00:53:46;;;;;;;21.73;15.00;;;;;;;;;;5050401;28;20064;-73
2023/06/23 00:56:12;;;;;;;17.23;13.75;;;;;;;;;;5053527;28;20017;-72
2023/06/23 00:58:39;;;;;;;18.38;14.18;;;;;;;;;;5070231;28;20036;-72
2023/06/23 01:01:05;;;;;;;23.80;16.13;;;;;;;;;;5070131;28;20023;-72
2023/06/23 01:03:31;;;;;;;23.58;14.68;;;;;;;;;;5063452;28;20025;-72
2023/06/23 01:06:01;;;;;;;16.67;12.90;;;;;;;;;;5034205;28;20025;-72
2023/06/23 01:08:34;;;;;;;20.02;15.52;;;;;;;;;;5041581;28;20040;-72
2023/06/23 01:11:16;;;;;;;21.83;14.80;;;;;;;;;;5050037;28;20054;-72
2023/06/23 01:13:50;;;;;;;18.92;14.57;;;;;;;;;;5051292;28;20028;-73
2023/06/23 01:16:18;;;;;;;22.70;15.85;;;;;;;;;;5020257;28;20036;-72
2023/06/23 01:19:03;;;;;;;21.33;15.85;;;;;;;;;;5034244;28;20571;-73
2023/06/23 01:21:34;;;;;;;21.80;15.73;;;;;;;;;;5036926;28;20037;-73
2023/06/23 01:24:19;;;;;;;23.45;15.80;;;;;;;;;;5061953;28;20025;-73
2023/06/23 01:27:03;;;;;;;21.33;16.40;;;;;;;;;;5037765;28;20025;-73
2023/06/23 01:29:33;;;;;;;20.88;15.57;;;;;;;;;;5047287;28;20045;-72
2023/06/23 01:32:06;;;;;;;24.60;16.63;;;;;;;;;;5039980;28;20021;-71
2023/06/23 01:34:38;;;;;;;24.20;16.15;;;;;;;;;;5037257;28;20677;-72
2023/06/23 01:37:07;;;;;;;23.08;17.55;;;;;;;;;;5048297;28;20036;-73
2023/06/23 01:39:35;;;;;;;25.58;17.63;;;;;;;;;;5069832;28;20028;-73
2023/06/23 01:42:04;;;;;;;22.35;16.88;;;;;;;;;;5052424;28;20028;-73
2023/06/23 01:44:31;;;;;;;22.52;16.55;;;;;;;;;;5037094;28;20479;-73
2023/06/23 01:46:58;;;;;;;21.52;17.35;;;;;;;;;;5045275;28;20035;-72
2023/06/23 01:49:28;;;;;;;18.45;16.30;;;;;;;;;;5037244;28;20199;-73
2023/06/23 01:51:55;;;;;;;19.77;15.48;;;;;;;;;;5045035;28;20111;-73
2023/06/23 01:54:22;;;;;;;21.90;16.33;;;;;;;;;;5051033;28;20029;-72
2023/06/23 01:56:48;;;;;;;22.30;17.35;;;;;;;;;;5051516;28;20494;-72
2023/06/23 01:59:15;;;;;;;22.15;17.50;;;;;;;;;;5045745;28;20200;-71
2023/06/23 02:01:42;;;;;;;23.25;16.90;;;;;;;;;;5039457;28;20482;-71
2023/06/23 02:04:09;;;;;;;21.55;17.42;;;;;;;;;;5057129;28;20082;-72
2023/06/23 02:06:36;;;;;;;20.58;16.92;;;;;;;;;;5056812;28;20025;-71
2023/06/23 02:09:03;;;;;;;22.05;18.42;;;;;;;;;;5050468;28;20444;-72
2023/06/23 02:11:30;;;;;;;22.33;18.08;;;;;;;;;;5049430;28;20449;-72
2023/06/23 02:13:57;;;;;;;26.85;19.10;;;;;;;;;;5068114;28;20029;-72
2023/06/23 02:16:23;;;;;;;22.05;18.23;;;;;;;;;;5036050;28;20083;-73
2023/06/23 02:18:54;;;;;;;23.23;18.60;;;;;;;;;;5049450;28;20057;-71
2023/06/23 02:21:19;;;;;;;;;;;;;;;;;;5043860;28;20103;-72
2023/06/23 02:23:46;;;;;;;23.27;18.02;;;;;;;;;;5056877;28;20007;-72
2023/06/23 02:26:12;;;;;;;24.27;18.77;;;;;;;;;;5059016;28;20057;-71
2023/06/23 02:28:39;;;;;;;25.92;19.35;;;;;;;;;;5060630;28;20040;-72
2023/06/23 02:31:05;;;;;;;26.27;19.58;;;;;;;;;;5042083;28;20051;-72
2023/06/23 02:33:31;;;;;;;22.40;19.45;;;;;;;;;;5036630;28;20083;-72
2023/06/23 02:35:57;;;;;;;24.15;19.13;;;;;;;;;;5040694;28;20037;-71
2023/06/23 02:38:24;;;;;;;23.88;19.77;;;;;;;;;;5044743;28;20033;-72
2023/06/23 02:40:52;;;;;;;25.75;20.38;;;;;;;;;;5043980;28;20021;-72
2023/06/23 02:43:22;;;;;;;27.52;20.45;;;;;;;;;;5031838;28;20108;-72
2023/06/23 02:45:52;;;;;;;22.88;19.58;;;;;;;;;;5037194;28;20209;-72
2023/06/23 02:48:19;;;;;;;27.10;21.77;;;;;;;;;;5050466;28;20394;-72
2023/06/23 02:50:46;;;;;;;31.45;22.42;;;;;;;;;;5052003;28;20443;-72
2023/06/23 02:53:16;;;;;;;30.15;23.02;;;;;;;;;;5048466;28;20116;-71
2023/06/23 02:55:44;;;;;;;;;;;;;;;;;;5049312;28;20072;-72
2023/06/23 02:58:12;;;;;;;32.42;26.45;;;;;;;;;;5049286;28;20011;-73
2023/06/23 03:00:39;;;;;;;32.60;25.70;;;;;;;;;;5049954;28;20044;-74
2023/06/23 03:03:07;;;;;;;35.05;28.48;;;;;;;;;;5049306;28;20047;-73
2023/06/23 03:05:33;;;;;;;38.30;29.10;;;;;;;;;;5042750;28;20395;-72
2023/06/23 03:08:00;;;;;;;41.40;29.30;;;;;;;;;;5048847;28;20103;-72
2023/06/23 03:10:28;;;;;;;47.17;32.80;;;;;;;;;;5048905;28;20036;-72
2023/06/23 03:12:54;;;;;;;41.40;32.67;;;;;;;;;;5045023;28;20082;-73
2023/06/23 03:15:20;;;;;;;41.00;31.88;;;;;;;;;;5048695;28;20033;-72
2023/06/23 03:17:48;;;;;;;43.25;33.53;;;;;;;;;;5062039;28;20143;-73
2023/06/23 03:20:14;;;;;;;45.00;33.78;;;;;;;;;;5048114;28;20025;-72
2023/06/23 03:22:43;;;;;;;46.35;35.30;;;;;;;;;;5054372;28;20031;-72
2023/06/23 03:25:11;;;;;;;53.72;38.55;;;;;;;;;;5040288;28;20037;-72
2023/06/23 03:27:38;;;;;;;46.97;35.63;;;;;;;;;;5070968;28;20032;-73
2023/06/23 03:30:07;;;;;;;57.50;41.03;;;;;;;;;;5055176;28;20463;-72
2023/06/23 03:32:37;;;;;;;56.28;42.47;;;;;;;;;;5051486;28;20053;-72
2023/06/23 03:35:04;;;;;;;61.15;44.40;;;;;;;;;;5043735;28;20040;-73
2023/06/23 03:37:31;;;;;;;63.80;46.03;;;;;;;;;;5062378;28;20029;-73
2023/06/23 03:39:59;;;;;;;69.47;47.65;;;;;;;;;;5043255;28;20026;-73
2023/06/23 03:42:26;;;;;;;65.88;46.83;;;;;;;;;;5042894;28;20117;-73
2023/06/23 03:44:53;;;;;;;67.10;48.78;;;;;;;;;;5051226;28;20051;-73
2023/06/23 03:47:21;;;;;;;72.15;49.53;;;;;;;;;;5051560;28;20044;-72
2023/06/23 03:50:01;;;;;;;74.32;49.42;;;;;;;;;;5070073;28;20036;-72
2023/06/23 03:52:29;;;;;;;78.77;52.17;;;;;;;;;;5071800;28;20505;-72
2023/06/23 03:54:55;;;;;;;69.40;50.63;;;;;;;;;;5047846;28;20033;-73
2023/06/23 03:57:22;;;;;;;73.75;53.35;;;;;;;;;;5045970;28;20471;-73
2023/06/23 03:59:50;;;;;;;80.05;54.58;;;;;;;;;;5045411;28;20039;-72
2023/06/23 04:02:17;;;;;;;85.57;56.78;;;;;;;;;;5049923;28;20438;-72
2023/06/23 04:04:45;;;;;;;82.43;56.85;;;;;;;;;;5068363;28;20486;-72
2023/06/23 04:07:12;;;;;;;79.75;55.42;;;;;;;;;;5049715;28;20030;-73
2023/06/23 04:09:39;;;;;;;80.18;55.47;;;;;;;;;;5049345;28;20048;-72
2023/06/23 04:12:10;;;;;;;77.35;54.22;;;;;;;;;;5042862;28;20056;-72
2023/06/23 04:14:37;;;;;;;80.70;55.65;;;;;;;;;;5050887;28;20031;-72
2023/06/23 04:17:04;;;;;;;83.85;56.65;;;;;;;;;;5046089;28;20024;-72
2023/06/23 04:19:31;;;;;;;82.53;56.42;;;;;;;;;;5038864;28;20071;-72
2023/06/23 04:21:59;;;;;;;86.70;57.30;;;;;;;;;;5041405;28;20022;-73
2023/06/23 04:24:26;;;;;;;75.55;52.05;;;;;;;;;;5046126;28;20053;-73
2023/06/23 04:26:54;;;;;;;79.97;59.03;;;;;;;;;;5041452;28;20427;-73
2023/06/23 04:29:21;;;;;;;83.95;59.13;;;;;;;;;;5042207;28;20518;-72
2023/06/23 04:31:48;;;;;;;86.63;57.15;;;;;;;;;;5042324;28;20391;-72
2023/06/23 04:34:14;;;;;;;87.20;58.10;;;;;;;;;;5024576;28;20021;-74
2023/06/23 04:36:44;;;;;;;84.57;58.67;;;;;;;;;;5019985;28;20022;-71
2023/06/23 04:39:17;;;;;;;85.50;59.27;;;;;;;;;;5023092;28;20041;-73
2023/06/23 04:41:47;;;;;;;82.10;58.08;;;;;;;;;;5024798;28;20032;-73
2023/06/23 04:44:13;;;;;;;82.07;57.00;;;;;;;;;;5021520;28;20034;-74
2023/06/23 04:46:41;;;;;;;84.95;58.47;;;;;;;;;;5023535;28;20034;-72
2023/06/23 04:49:11;;;;;;;86.05;58.85;;;;;;;;;;5023408;28;20553;-72
2023/06/23 04:51:43;;;;;;;84.00;58.30;;;;;;;;;;5023452;28;20434;-72
2023/06/23 04:54:15;;;;;;;81.20;58.70;;;;;;;;;;5023465;28;20037;-72
2023/06/23 04:56:42;;;;;;;85.20;59.80;;;;;;;;;;5023887;28;20024;-72
2023/06/23 04:59:09;;;;;;;82.38;56.78;;;;;;;;;;5022319;28;20345;-72
2023/06/23 05:01:36;;;;;;;81.13;60.13;;;;;;;;;;5017093;28;20029;-72
2023/06/23 05:04:04;;;;;;;79.70;57.05;;;;;;;;;;5030735;28;20025;-73
2023/06/23 05:06:32;;;;;;;88.53;59.58;;;;;;;;;;5033863;28;20036;-73
2023/06/23 05:09:01;;;;;;;88.55;61.65;;;;;;;;;;5016576;28;20523;-72
2023/06/23 05:11:28;;;;;;;85.70;61.93;;;;;;;;;;5031486;28;20033;-72
2023/06/23 05:13:54;;;;;;;86.90;58.78;;;;;;;;;;5030244;28;20170;-71
2023/06/23 05:16:21;;;;;;;67.80;50.25;;;;;;;;;;5041789;28;20544;-72
2023/06/23 05:18:50;;;;;;;75.43;53.65;;;;;;;;;;5027754;28;20391;-73
2023/06/23 05:21:18;;;;;;;70.00;49.85;;;;;;;;;;5008972;28;20092;-72
2023/06/23 05:23:46;;;;;;;64.20;44.08;;;;;;;;;;5025811;28;20044;-72
2023/06/23 05:26:14;;;;;;;73.40;52.17;;;;;;;;;;5024280;28;20049;-71
2023/06/23 05:28:40;;;;;;;71.88;53.95;;;;;;;;;;5020915;28;20535;-71
2023/06/23 05:31:07;;;;;;;75.15;53.00;;;;;;;;;;5024093;28;20075;-70
2023/06/23 05:33:35;;;;;;;73.18;51.13;;;;;;;;;;5037024;28;20048;-72
2023/06/23 05:36:02;;;;;;;76.05;52.60;;;;;;;;;;5039449;28;20022;-72
2023/06/23 05:38:29;;;;;;;58.47;44.30;;;;;;;;;;5036215;28;20038;-71
2023/06/23 05:40:55;;;;;;;66.82;48.42;;;;;;;;;;5048196;28;20049;-71
2023/06/23 05:43:22;;;;;;;74.15;54.85;;;;;;;;;;5049440;28;20567;-71
2023/06/23 05:45:48;;;;;;;68.25;48.42;;;;;;;;;;5049510;28;20479;-72
2023/06/23 05:48:27;;;;;;;48.22;35.42;;;;;;;;;;5048913;28;20032;-72
2023/06/23 05:50:53;;;;;;;55.40;39.80;;;;;;;;;;5042379;28;20029;-74
2023/06/23 05:53:21;;;;;;;62.83;46.55;;;;;;;;;;5048785;28;20028;-74
2023/06/23 05:55:56;;;;;;;66.50;48.50;;;;;;;;;;5049069;28;20479;-72
2023/06/23 05:58:23;;;;;;;55.40;40.45;;;;;;;;;;5049238;28;20036;-73
2023/06/23 06:00:53;;;;;;;65.53;49.30;;;;;;;;;;5047440;28;20080;-72
2023/06/23 06:03:19;;;;;;;;;;;;;;;;;;5048475;28;20047;-74
2023/06/23 06:05:47;;;;;;;28.80;21.30;;;;;;;;;;5041381;28;19991;-73
2023/06/23 06:08:14;;;;;;;20.63;13.80;;;;;;;;;;5054890;28;20037;-73
2023/06/23 06:10:41;;;;;;;17.83;13.00;;;;;;;;;;5048606;28;20429;-73
2023/06/23 06:13:08;;;;;;;38.58;30.33;;;;;;;;;;5048516;28;20033;-72
2023/06/23 06:15:34;;;;;;;28.10;19.48;;;;;;;;;;5047235;28;20433;-74
2023/06/23 06:18:03;;;;;;;11.43;8.18;;;;;;;;;;5048282;28;20108;-73
2023/06/23 06:20:30;;;;;;;9.85;6.75;;;;;;;;;;5048881;28;20021;-73
2023/06/23 06:22:57;;;;;;;33.53;27.65;;;;;;;;;;5063252;28;20573;-73
2023/06/23 06:25:24;;;;;;;22.23;16.75;;;;;;;;;;5060523;28;20017;-72
2023/06/23 06:27:51;;;;;;;25.70;20.63;;;;;;;;;;5045111;28;20033;-74
2023/06/23 06:30:18;;;;;;;17.05;13.20;;;;;;;;;;5048024;28;20107;-74
2023/06/23 06:32:45;;;;;;;12.07;8.75;;;;;;;;;;5048768;28;20586;-72
2023/06/23 06:35:12;;;;;;;20.13;13.32;;;;;;;;;;5040957;28;20052;-72
2023/06/23 06:37:41;;;;;;;24.20;17.83;;;;;;;;;;5049650;28;20115;-73
2023/06/23 06:40:09;;;;;;;20.40;14.63;;;;;;;;;;5048243;28;20447;-72
2023/06/23 06:42:36;;;;;;;27.30;22.10;;;;;;;;;;5052010;28;20036;-72
2023/06/23 06:45:03;;;;;;;13.25;9.18;;;;;;;;;;5058604;28;20027;-73
2023/06/23 06:47:29;;;;;;;17.23;12.82;;;;;;;;;;5068020;28;20112;-75
2023/06/23 06:49:58;;;;;;;13.13;9.00;;;;;;;;;;5047564;28;20386;-73
2023/06/23 06:52:25;;;;;;;12.40;7.85;;;;;;;;;;5037688;28;20446;-72
2023/06/23 06:54:52;;;;;;;22.45;18.17;;;;;;;;;;5041316;28;20017;-74
2023/06/23 06:57:19;;;;;;;29.08;25.90;;;;;;;;;;5042401;28;20036;-74
2023/06/23 06:59:45;;;;;;;25.00;20.25;;;;;;;;;;5045771;28;20072;-74
2023/06/23 07:02:12;;;;;;;15.70;11.18;;;;;;;;;;5051243;28;20083;-75
2023/06/23 07:04:39;;;;;;;11.98;8.88;;;;;;;;;;5053186;28;20024;-74
2023/06/23 07:07:06;;;;;;;32.35;27.00;;;;;;;;;;5050772;28;20105;-74
2023/06/23 07:09:32;;;;;;;15.27;11.23;;;;;;;;;;5064657;28;20035;-74
2023/06/23 07:11:58;;;;;;;13.23;9.55;;;;;;;;;;5060849;28;20092;-74
2023/06/23 07:14:25;;;;;;;30.30;23.52;;;;;;;;;;5063993;28;20039;-74
2023/06/23 07:16:51;;;;;;;11.18;6.80;;;;;;;;;;5046125;28;20021;-74
2023/06/23 07:19:17;;;;;;;12.75;9.73;;;;;;;;;;5047392;28;20059;-73
2023/06/23 07:21:43;;;;;;;28.23;23.67;;;;;;;;;;5051584;28;20036;-75
2023/06/23 07:24:09;;;;;;;19.35;15.45;;;;;;;;;;5061630;28;20035;-74
2023/06/23 07:26:37;;;;;;;12.50;9.90;;;;;;;;;;5066700;28;20028;-74
2023/06/23 07:29:03;;;;;;;25.35;20.38;;;;;;;;;;5047844;28;20086;-75
2023/06/23 07:31:30;;;;;;;25.05;17.30;;;;;;;;;;5068813;28;20039;-74
2023/06/23 07:33:56;;;;;;;18.17;14.45;;;;;;;;;;5059318;28;20055;-74
2023/06/23 07:36:22;;;;;;;18.63;13.00;;;;;;;;;;5053452;28;20092;-76
2023/06/23 07:38:49;;;;;;;17.48;13.85;;;;;;;;;;5064456;28;20474;-74
2023/06/23 07:41:16;;;;;;;15.18;13.18;;;;;;;;;;5050950;28;20036;-74
2023/06/23 07:43:43;;;;;;;9.95;5.97;;;;;;;;;;5047469;28;20101;-75
2023/06/23 07:46:09;;;;;;;7.97;5.70;;;;;;;;;;5047090;28;20194;-74
2023/06/23 07:48:35;;;;;;;10.90;7.82;;;;;;;;;;5043319;28;20105;-74
2023/06/23 07:51:02;;;;;;;18.27;13.60;;;;;;;;;;5071318;28;20028;-75
2023/06/23 07:53:28;;;;;;;8.77;5.43;;;;;;;;;;5053640;28;20127;-75
2023/06/23 07:55:54;;;;;;;16.60;12.57;;;;;;;;;;5071183;28;20511;-73
2023/06/23 07:58:20;;;;;;;13.85;9.80;;;;;;;;;;5071528;28;20021;-74
2023/06/23 08:00:46;;;;;;;11.23;8.35;;;;;;;;;;5071257;28;20039;-75
2023/06/23 08:03:12;;;;;;;12.52;9.70;;;;;;;;;;5071418;28;20335;-75
2023/06/23 08:05:38;;;;;;;16.60;13.13;;;;;;;;;;5071532;28;20609;-74
2023/06/23 08:08:05;;;;;;;11.02;8.10;;;;;;;;;;5058223;28;20029;-73
2023/06/23 08:10:31;;;;;;;13.88;10.15;;;;;;;;;;5050981;28;20036;-74
2023/06/23 08:12:57;;;;;;;16.25;12.20;;;;;;;;;;5050011;28;20021;-76
2023/06/23 08:15:23;;;;;;;14.05;9.50;;;;;;;;;;5051462;28;20840;-74
2023/06/23 08:17:49;;;;;;;13.45;10.60;;;;;;;;;;5050575;28;20029;-74
2023/06/23 08:20:15;;;;;;;11.73;8.82;;;;;;;;;;5051074;28;20029;-74
2023/06/23 08:22:41;;;;;;;8.00;4.50;;;;;;;;;;5050888;28;20026;-75
2023/06/23 08:25:08;;;;;;;14.15;11.95;;;;;;;;;;5050786;28;20349;-75
2023/06/23 08:27:34;;;;;;;8.25;5.80;;;;;;;;;;5046625;28;20075;-76
2023/06/23 08:30:00;;;;;;;10.63;7.25;;;;;;;;;;5063725;28;20035;-75
2023/06/23 08:32:26;;;;;;;10.25;7.55;;;;;;;;;;5049993;28;20048;-76
2023/06/23 08:34:52;;;;;;;12.30;9.57;;;;;;;;;;5050532;28;20021;-74
2023/06/23 08:37:18;;;;;;;11.32;7.60;;;;;;;;;;5050279;28;20021;-74
2023/06/23 08:39:44;;;;;;;11.32;8.20;;;;;;;;;;5050452;28;20029;-75
2023/06/23 08:42:12;;;;;;;13.13;8.75;;;;;;;;;;5053165;28;20035;-74
2023/06/23 08:44:41;;;;;;;11.52;8.25;;;;;;;;;;5037419;28;20032;-75
2023/06/23 08:47:12;;;;;;;10.90;7.78;;;;;;;;;;5050014;28;20032;-75
2023/06/23 08:49:39;;;;;;;9.48;5.63;;;;;;;;;;5049840;28;20051;-76
2023/06/23 08:52:06;;;;;;;8.75;6.05;;;;;;;;;;5050112;28;20025;-74
2023/06/23 08:54:32;;;;;;;8.35;6.20;;;;;;;;;;5050364;28;20021;-74
2023/06/23 08:56:58;;;;;;;12.48;8.70;;;;;;;;;;5050193;28;20025;-75
2023/06/23 08:59:25;;;;;;;11.45;7.93;;;;;;;;;;5050257;28;20036;-75
2023/06/23 09:01:51;;;;;;;11.35;8.82;;;;;;;;;;5049941;28;20052;-76
2023/06/23 09:04:17;;;;;;;11.30;5.85;;;;;;;;;;5050013;28;20057;-74
2023/06/23 09:06:43;;;;;;;6.40;4.18;;;;;;;;;;5062827;28;20032;-76
2023/06/23 09:09:10;;;;;;;7.38;5.10;;;;;;;;;;5045222;28;20516;-77
2023/06/23 09:11:36;;;;;;;5.80;4.15;;;;;;;;;;5049994;28;20030;-76
2023/06/23 09:14:02;;;;;;;6.78;3.42;;;;;;;;;;5049698;28;20032;-76
2023/06/23 09:16:28;;;;;;;9.10;5.60;;;;;;;;;;5051253;28;20036;-75
2023/06/23 09:18:54;;;;;;;8.82;6.35;;;;;;;;;;5060866;28;20470;-75
2023/06/23 09:21:21;;;;;;;7.18;4.72;;;;;;;;;;5049635;28;20032;-75
2023/06/23 09:24:04;;;;;;;8.73;4.43;;;;;;;;;;5045917;28;20017;-75
2023/06/23 09:26:30;;;;;;;7.68;4.57;;;;;;;;;;5050881;28;20513;-75
2023/06/23 09:29:16;;;;;;;6.50;4.47;;;;;;;;;;5050035;28;20041;-76
2023/06/23 09:31:43;;;;;;;5.90;3.75;;;;;;;;;;5049617;28;20025;-75
2023/06/23 09:34:09;;;;;;;5.93;3.95;;;;;;;;;;5049374;28;20372;-75
2023/06/23 09:36:35;;;;;;;5.93;2.95;;;;;;;;;;5050450;28;20483;-75
2023/06/23 09:39:01;;;;;;;6.60;4.25;;;;;;;;;;5049740;28;20473;-76
2023/06/23 09:41:32;;;;;;;7.00;3.83;;;;;;;;;;5046432;28;20025;-77
2023/06/23 09:43:59;;;;;;;5.03;2.88;;;;;;;;;;5037389;28;20120;-77
2023/06/23 09:46:27;;;;;;;8.57;4.93;;;;;;;;;;5050398;28;20052;-76
2023/06/23 09:48:54;;;;;;;6.03;4.65;;;;;;;;;;5050547;28;20063;-75
2023/06/23 09:51:23;;;;;;;6.10;3.72;;;;;;;;;;5049764;28;20021;-76
2023/06/23 09:53:49;;;;;;;8.75;5.57;;;;;;;;;;5038845;28;20033;-76
2023/06/23 09:56:16;;;;;;;5.40;3.65;;;;;;;;;;5055520;28;20040;-76
2023/06/23 09:58:42;;;;;;;5.60;3.45;;;;;;;;;;5049276;28;20025;-76
2023/06/23 10:01:13;;;;;;;8.90;5.97;;;;;;;;;;5052141;28;20028;-76
2023/06/23 10:03:46;;;;;;;7.55;5.72;;;;;;;;;;5068356;28;20451;-76
2023/06/23 10:06:35;;;;;;;7.13;4.90;;;;;;;;;;5032287;28;20394;-75
2023/06/23 10:09:02;;;;;;;6.75;4.43;;;;;;;;;;5036128;28;20072;-75
2023/06/23 10:11:48;;;;;;;8.80;6.20;;;;;;;;;;5064770;28;20109;-78
2023/06/23 10:14:16;;;;;;;10.23;6.32;;;;;;;;;;5067062;28;20031;-75
2023/06/23 10:16:45;;;;;;;8.13;4.38;;;;;;;;;;5066640;28;20035;-75
2023/06/23 10:19:16;;;;;;;5.65;2.90;;;;;;;;;;5060021;28;20640;-76
2023/06/23 10:21:44;;;;;;;7.07;3.85;;;;;;;;;;5062073;28;20021;-76
2023/06/23 10:24:16;;;;;;;6.68;4.70;;;;;;;;;;5040743;28;20059;-76
2023/06/23 10:26:43;;;;;;;7.35;5.05;;;;;;;;;;5051748;28;20031;-76
2023/06/23 10:29:18;;;;;;;6.70;3.47;;;;;;;;;;5032243;28;20040;-76
2023/06/23 10:31:44;;;;;;;9.18;5.15;;;;;;;;;;5049245;28;20036;-75
2023/06/23 10:34:15;;;;;;;5.30;3.63;;;;;;;;;;5050263;28;20028;-76
2023/06/23 10:36:42;;;;;;;7.32;3.92;;;;;;;;;;5050020;28;20017;-76
2023/06/23 10:39:12;;;;;;;5.88;3.28;;;;;;;;;;5050229;28;20034;-77
2023/06/23 10:41:40;;;;;;;5.53;3.75;;;;;;;;;;5050280;28;20025;-75
2023/06/23 10:44:06;;;;;;;5.18;3.08;;;;;;;;;;5057589;28;20033;-76
2023/06/23 10:46:32;;;;;;;4.68;2.63;;;;;;;;;;5049591;28;20029;-76
2023/06/23 10:48:59;;;;;;;4.97;2.90;;;;;;;;;;5048781;28;20033;-76
2023/06/23 10:51:25;;;;;;;6.50;3.38;;;;;;;;;;5067134;28;20032;-77
2023/06/23 10:53:58;;;;;;;7.15;4.07;;;;;;;;;;5069951;28;21395;-76
2023/06/23 10:56:35;;;;;;;5.65;3.00;;;;;;;;;;5069337;28;20162;-77
2023/06/23 10:59:17;;;;;;;5.90;3.13;;;;;;;;;;5049589;28;20108;-76
2023/06/23 11:02:07;;;;;;;5.65;2.35;;;;;;;;;;5049297;28;20086;-77
2023/06/23 11:04:34;;;;;;;5.20;2.40;;;;;;;;;;5053008;28;20075;-76
2023/06/23 11:07:03;;;;;;;4.70;2.83;;;;;;;;;;5062433;28;20047;-76
2023/06/23 11:10:01;;;;;;;4.75;2.70;;;;;;;;;;5066936;28;20542;-76
2023/06/23 11:12:39;;;;;;;7.60;2.92;;;;;;;;;;5055037;28;20475;-77
2023/06/23 11:15:16;;;;;;;5.32;2.83;;;;;;;;;;5066895;28;20501;-78
2023/06/23 11:17:49;;;;;;;4.32;2.53;;;;;;;;;;5050248;28;20367;-75
2023/06/23 11:20:25;;;;;;;5.13;2.70;;;;;;;;;;5042670;28;20065;-75
2023/06/23 11:22:54;;;;;;;5.85;2.95;;;;;;;;;;5048960;28;20396;-75
2023/06/23 11:25:20;;;;;;;;;;;;;;;;;;5050991;28;20470;-76
2023/06/23 11:28:06;;;;;;;4.60;2.53;;;;;;;;;;5069153;28;19990;-76
2023/06/23 11:30:50;;;;;;;4.25;2.67;;;;;;;;;;5068880;28;20028;-78
2023/06/23 11:33:29;;;;;;;3.92;2.10;;;;;;;;;;5054433;28;20045;-79
2023/06/23 11:35:55;;;;;;;3.55;1.83;;;;;;;;;;5048337;28;20426;-77
2023/06/23 11:38:21;;;;;;;3.85;2.15;;;;;;;;;;5044099;28;20468;-76
2023/06/23 11:40:47;;;;;;;5.35;2.40;;;;;;;;;;5038860;28;20031;-76
2023/06/23 11:43:18;;;;;;;5.03;2.53;;;;;;;;;;5056323;28;20048;-76
2023/06/23 11:45:45;;;;;;;4.80;2.30;;;;;;;;;;5035181;28;20048;-76
2023/06/23 11:48:11;;;;;;;5.80;2.78;;;;;;;;;;5050802;28;20029;-75
2023/06/23 11:50:41;;;;;;;3.28;1.90;;;;;;;;;;5052901;28;20047;-77
2023/06/23 11:53:07;;;;;;;7.13;2.85;;;;;;;;;;5033867;28;20025;-76
2023/06/23 11:55:34;;;;;;;4.80;2.40;;;;;;;;;;5052671;28;20021;-78
2023/06/23 11:58:00;;;;;;;3.80;2.15;;;;;;;;;;5052425;28;20117;-76
2023/06/23 12:00:26;;;;;;;5.57;2.40;;;;;;;;;;5034377;28;20029;-76
2023/06/23 12:02:52;;;;;;;4.22;2.30;;;;;;;;;;5034620;28;20175;-75
2023/06/23 12:05:19;;;;;;;4.85;2.45;;;;;;;;;;5034398;28;20424;-77
2023/06/23 12:07:46;;;;;;;5.40;2.58;;;;;;;;;;5034533;28;20087;-76
2023/06/23 12:10:12;;;;;;;3.60;2.03;;;;;;;;;;5034099;28;20513;-77
2023/06/23 12:12:39;;;;;;;4.75;2.30;;;;;;;;;;5052330;28;20104;-75
2023/06/23 12:15:05;;;;;;;5.03;2.53;;;;;;;;;;5034442;28;20025;-76
2023/06/23 12:17:32;;;;;;;5.30;2.58;;;;;;;;;;5033509;28;20025;-76
2023/06/23 12:19:58;;;;;;;4.15;2.35;;;;;;;;;;5052006;28;20391;-76
2023/06/23 12:22:35;;;;;;;4.28;2.40;;;;;;;;;;5051521;28;20486;-78
2023/06/23 12:25:01;;;;;;;3.70;2.08;;;;;;;;;;5051676;28;20028;-77
2023/06/23 12:27:27;;;;;;;4.93;2.08;;;;;;;;;;5051511;28;20542;-79
2023/06/23 12:29:53;;;;;;;4.00;2.40;;;;;;;;;;5051307;28;20033;-77
2023/06/23 12:32:19;;;;;;;4.60;2.80;;;;;;;;;;5051776;28;20069;-78
2023/06/23 12:34:45;;;;;;;4.60;2.05;;;;;;;;;;5033864;28;20117;-77
2023/06/23 12:37:13;;;;;;;4.97;2.70;;;;;;;;;;5051678;28;20057;-79
2023/06/23 12:39:40;;;;;;;6.55;2.90;;;;;;;;;;5034165;28;20033;-76
2023/06/23 12:42:09;;;;;;;4.70;2.63;;;;;;;;;;5038599;28;20028;-78
2023/06/23 12:44:36;;;;;;;4.15;2.55;;;;;;;;;;5039886;28;20030;-77
2023/06/23 12:47:04;;;;;;;6.60;3.10;;;;;;;;;;5051689;28;20032;-78
2023/06/23 12:49:31;;;;;;;7.53;3.25;;;;;;;;;;5041651;28;20402;-77
2023/06/23 12:51:57;;;;;;;5.65;3.50;;;;;;;;;;5048113;28;20029;-77
2023/06/23 12:54:26;;;;;;;4.20;2.55;;;;;;;;;;5051167;28;20103;-77
2023/06/23 12:56:55;;;;;;;5.43;2.78;;;;;;;;;;5051391;28;20025;-78
2023/06/23 12:59:21;;;;;;;4.03;2.43;;;;;;;;;;5050977;28;20021;-77
2023/06/23 13:01:47;;;;;;;5.20;2.88;;;;;;;;;;5065227;28;20540;-78
2023/06/23 13:04:14;;;;;;;5.68;3.08;;;;;;;;;;5062638;28;20100;-76
2023/06/23 13:06:40;;;;;;;4.25;2.60;;;;;;;;;;5066981;28;20029;-78
2023/06/23 13:09:06;;;;;;;6.57;2.72;;;;;;;;;;5050966;28;20037;-77
2023/06/23 13:11:35;;;;;;;5.57;2.90;;;;;;;;;;5051073;28;20066;-76
2023/06/23 13:14:01;;;;;;;5.93;2.70;;;;;;;;;;5051432;28;20378;-77
2023/06/23 13:16:27;;;;;;;5.95;2.78;;;;;;;;;;5051442;28;20021;-75
2023/06/23 13:18:53;;;;;;;5.93;3.15;;;;;;;;;;5047618;28;20033;-76
2023/06/23 13:21:19;;;;;;;3.80;2.30;;;;;;;;;;5051950;28;20498;-78
2023/06/23 13:23:45;;;;;;;3.17;2.17;;;;;;;;;;5043421;28;20082;-76
2023/06/23 13:26:12;;;;;;;5.60;2.45;;;;;;;;;;5044218;28;20083;-77
2023/06/23 13:28:38;;;;;;;3.72;2.45;;;;;;;;;;5051927;28;20044;-79
2023/06/23 13:31:04;;;;;;;5.07;2.90;;;;;;;;;;5038054;28;20021;-76
2023/06/23 13:33:30;;;;;;;4.28;2.15;;;;;;;;;;5055637;28;20049;-75
2023/06/23 13:35:57;;;;;;;5.95;2.83;;;;;;;;;;5040667;28;20021;-77
2023/06/23 13:38:23;;;;;;;5.75;3.53;;;;;;;;;;5042994;28;20040;-76
2023/06/23 13:40:49;;;;;;;4.40;2.55;;;;;;;;;;5050665;28;20544;-77
2023/06/23 13:43:15;;;;;;;5.00;2.95;;;;;;;;;;5055562;28;20029;-76
2023/06/23 13:45:41;;;;;;;5.28;2.67;;;;;;;;;;5050235;28;20078;-75
2023/06/23 13:48:07;;;;;;;4.28;2.30;;;;;;;;;;5057721;28;20032;-74
2023/06/23 13:50:34;;;;;;;5.60;2.60;;;;;;;;;;5056251;28;20092;-77
2023/06/23 13:53:00;;;;;;;4.72;2.75;;;;;;;;;;5046964;28;20525;-77
2023/06/23 13:55:26;;;;;;;4.72;2.60;;;;;;;;;;5040923;28;20535;-76
2023/06/23 13:57:52;;;;;;;4.88;2.60;;;;;;;;;;5051049;28;20596;-74
2023/06/23 14:00:19;;;;;;;4.35;2.70;;;;;;;;;;5045644;28;20058;-74
2023/06/23 14:02:45;;;;;;;5.10;2.20;;;;;;;;;;5046777;28;20048;-75
2023/06/23 14:05:14;;;;;;;5.32;2.78;;;;;;;;;;5044765;28;20086;-75
2023/06/23 14:07:40;;;;;;;6.25;2.92;;;;;;;;;;5050944;28;20032;-77
2023/06/23 14:10:07;;;;;;;4.07;2.60;;;;;;;;;;5046488;28;20567;-79
2023/06/23 14:12:33;;;;;;;3.55;1.98;;;;;;;;;;5034692;28;20021;-78
2023/06/23 14:14:59;;;;;;;4.78;2.30;;;;;;;;;;5036138;28;20025;-80
2023/06/23 14:17:29;;;;;;;4.72;2.42;;;;;;;;;;5039844;28;20028;-78
2023/06/23 14:19:56;;;;;;;4.05;2.50;;;;;;;;;;5060206;28;20107;-81
2023/06/23 14:22:22;;;;;;;5.25;2.72;;;;;;;;;;5037278;28;20021;-78
2023/06/23 14:24:48;;;;;;;4.97;2.92;;;;;;;;;;5050282;28;20113;-81
2023/06/23 14:27:14;;;;;;;3.88;2.25;;;;;;;;;;5043220;28;20162;-80
2023/06/23 14:29:40;;;;;;;5.53;2.90;;;;;;;;;;5048023;28;20689;-81
2023/06/23 14:32:06;;;;;;;5.03;2.60;;;;;;;;;;5047914;28;20112;-80
2023/06/23 14:34:33;;;;;;;4.88;2.45;;;;;;;;;;5048794;28;20079;-80
2023/06/23 14:36:59;;;;;;;6.40;2.70;;;;;;;;;;5047814;28;20044;-80